createdAt,value
2023-03-01T00:03:19.718Z,10.97
2023-03-01T00:08:26.364Z,11.92
2023-03-01T00:13:32.713Z,11.21
2023-03-01T00:18:38.902Z,11.47
2023-03-01T00:23:45.003Z,11.18
2023-03-01T00:28:51.209Z,11.05
2023-03-01T00:33:57.388Z,10.86
2023-03-01T00:39:03.636Z,10.72
2023-03-01T00:44:09.765Z,11.52
2023-03-01T00:49:16.055Z,10.84
2023-03-01T00:54:22.203Z,11.18
2023-03-01T00:59:28.469Z,11.22
2023-03-01T01:04:34.616Z,10.74
2023-03-01T01:09:40.868Z,11.25
2023-03-01T01:14:46.987Z,11.03
2023-03-01T01:19:53.259Z,10.79
2023-03-01T01:24:59.431Z,11.08
2023-03-01T01:30:05.763Z,10.81
2023-03-01T01:35:11.895Z,11.09
2023-03-01T01:40:18.329Z,11.07
2023-03-01T01:45:24.658Z,11.25
2023-03-01T01:50:30.914Z,11.04
2023-03-01T01:55:37.154Z,11.16
2023-03-01T02:00:43.384Z,11.39
2023-03-01T02:05:55.221Z,11.82
2023-03-01T02:10:56.309Z,11.48
2023-03-01T02:16:02.496Z,11.58
2023-03-01T02:21:09.586Z,11.63
2023-03-01T02:26:15.658Z,11.64
2023-03-01T02:31:21.906Z,11.65
2023-03-01T02:36:28.035Z,11.74
2023-03-01T02:41:34.229Z,11.19
2023-03-01T02:46:40.377Z,17.57
2023-03-01T02:51:46.590Z,11.58
2023-03-01T02:56:52.695Z,17.25
2023-03-01T03:01:58.983Z,11.69
2023-03-01T03:07:05.464Z,11.72
2023-03-01T03:12:11.770Z,11.77
2023-03-01T03:17:17.866Z,11.99
2023-03-01T03:22:24.044Z,11.98
2023-03-01T03:27:30.222Z,12.14
2023-03-01T03:32:36.532Z,11.47
2023-03-01T03:37:45.475Z,11.74
2023-03-01T03:42:51.699Z,11.78
2023-03-01T03:47:57.782Z,11.89
2023-03-01T03:53:04.053Z,12.51
2023-03-01T03:58:10.186Z,12.79
2023-03-01T04:03:16.404Z,12.33
2023-03-01T04:08:22.922Z,11.37
2023-03-01T04:13:29.013Z,11.38
2023-03-01T04:19:38.680Z,12.21
2023-03-01T04:24:49.075Z,10.72
2023-03-01T04:29:45.196Z,11.18
2023-03-01T04:34:51.388Z,10.94
2023-03-01T04:40:01.755Z,11.33
2023-03-01T04:44:58.011Z,10.71
2023-03-01T04:50:04.200Z,11.41
2023-03-01T04:55:10.514Z,11.21
2023-03-01T05:00:16.700Z,11.44
2023-03-01T05:06:09.609Z,12.19
2023-03-01T05:11:15.717Z,11.69
2023-03-01T05:16:22.110Z,10.97
2023-03-01T05:21:28.249Z,10.77
2023-03-01T05:26:34.463Z,11.06
2023-03-01T05:31:40.639Z,10.98
2023-03-01T05:36:46.829Z,11.34
2023-03-01T05:41:53.346Z,11.49
2023-03-01T05:46:59.727Z,11.65
2023-03-01T05:52:05.881Z,11.61
2023-03-01T05:57:13.265Z,11.34
2023-03-01T06:02:19.372Z,11.00
2023-03-01T06:08:23.258Z,13.05
2023-03-01T06:13:29.491Z,11.56
2023-03-01T06:18:35.795Z,11.19
2023-03-01T06:23:41.898Z,11.13
2023-03-01T06:28:48.094Z,11.67
2023-03-01T06:33:54.155Z,11.44
2023-03-01T06:39:00.367Z,11.77
2023-03-01T06:44:06.535Z,12.55
2023-03-01T06:49:12.692Z,13.12
2023-03-01T06:54:18.821Z,13.25
2023-03-01T06:59:24.950Z,12.59
2023-03-01T07:04:31.163Z,13.80
2023-03-01T07:09:37.402Z,14.09
2023-03-01T07:14:43.512Z,14.36
2023-03-01T07:19:49.704Z,14.29
2023-03-01T07:24:55.962Z,14.46
2023-03-01T07:30:02.329Z,14.68
2023-03-01T07:35:08.427Z,14.08
2023-03-01T07:40:14.742Z,13.31
2023-03-01T07:45:20.840Z,13.13
2023-03-01T07:50:27.073Z,13.65
2023-03-01T07:55:33.254Z,13.93
2023-03-01T08:00:39.668Z,13.78
2023-03-01T08:05:45.813Z,13.56
2023-03-01T08:10:51.974Z,13.57
2023-03-01T08:15:58.142Z,13.75
2023-03-01T08:21:04.412Z,13.53
2023-03-01T08:26:10.641Z,13.37
2023-03-01T08:31:17.165Z,13.30
2023-03-01T08:36:23.249Z,12.99
2023-03-01T08:41:29.451Z,13.47
2023-03-01T08:46:35.601Z,12.66
2023-03-01T08:51:41.881Z,12.50
2023-03-01T08:56:48.089Z,11.87
2023-03-01T09:01:54.322Z,12.10
2023-03-01T09:07:00.372Z,10.67
2023-03-01T09:12:06.625Z,10.13
2023-03-01T09:17:12.738Z,9.15
2023-03-01T09:22:18.911Z,8.18
2023-03-01T09:27:25.010Z,7.63
2023-03-01T09:32:31.284Z,7.81
2023-03-01T09:37:37.329Z,7.31
2023-03-01T09:42:43.443Z,6.95
2023-03-01T09:47:49.514Z,5.97
2023-03-01T09:52:55.760Z,6.58
2023-03-01T09:58:01.851Z,5.86
2023-03-01T10:03:08.033Z,5.69
2023-03-01T10:08:14.115Z,5.59
2023-03-01T10:13:20.420Z,4.69
2023-03-01T10:18:26.482Z,4.49
2023-03-01T10:23:32.662Z,4.55
2023-03-01T10:28:38.813Z,4.61
2023-03-01T10:33:45.144Z,4.16
2023-03-01T10:38:51.227Z,4.35
2023-03-01T10:43:57.405Z,4.93
2023-03-01T10:49:03.511Z,4.85
2023-03-01T10:54:09.803Z,5.01
2023-03-01T10:59:15.874Z,5.44
2023-03-01T11:04:22.055Z,5.52
2023-03-01T11:09:28.120Z,6.24
2023-03-01T11:14:34.304Z,6.43
2023-03-01T11:19:40.418Z,6.66
2023-03-01T11:24:46.860Z,7.14
2023-03-01T11:29:52.212Z,7.70
2023-03-01T11:34:58.409Z,7.67
2023-03-01T11:40:04.513Z,8.16
2023-03-01T11:45:10.751Z,8.59
2023-03-01T11:50:16.972Z,8.71
2023-03-01T11:55:23.188Z,8.55
2023-03-01T12:00:29.309Z,9.18
2023-03-01T12:05:35.529Z,9.09
2023-03-01T12:10:41.616Z,9.43
2023-03-01T12:15:47.932Z,9.36
2023-03-01T12:20:54.094Z,9.43
2023-03-01T12:26:00.320Z,9.60
2023-03-01T12:31:06.473Z,9.28
2023-03-01T12:36:12.943Z,9.46
2023-03-01T12:41:18.934Z,9.27
2023-03-01T12:46:25.138Z,9.58
2023-03-01T12:51:31.278Z,9.55
2023-03-01T12:56:37.477Z,9.82
2023-03-01T13:01:43.627Z,9.02
2023-03-01T13:06:50.174Z,9.07
2023-03-01T13:12:08.081Z,9.20
2023-03-01T13:16:59.554Z,8.75
2023-03-01T13:22:05.609Z,9.21
2023-03-01T13:27:11.849Z,9.08
2023-03-01T13:32:18.131Z,9.24
2023-03-01T13:37:24.333Z,8.84
2023-03-01T13:42:30.496Z,9.07
2023-03-01T13:47:36.788Z,9.04
2023-03-01T13:52:42.877Z,8.95
2023-03-01T13:57:49.121Z,8.71
2023-03-01T14:03:01.408Z,8.74
2023-03-01T14:08:01.231Z,8.81
2023-03-01T14:13:15.907Z,8.97
2023-03-01T14:18:13.011Z,9.44
2023-03-01T14:23:19.194Z,8.65
2023-03-01T14:28:25.473Z,9.34
2023-03-01T14:33:31.562Z,9.28
2023-03-01T14:38:37.713Z,9.90
2023-03-01T14:43:43.858Z,11.13
2023-03-01T14:48:50.180Z,11.36
2023-03-01T14:53:56.426Z,10.69
2023-03-01T14:59:02.687Z,10.74
2023-03-01T15:04:08.850Z,11.49
2023-03-01T15:09:15.071Z,12.77
2023-03-01T15:14:21.233Z,11.21
2023-03-01T15:19:27.420Z,11.55
2023-03-01T15:24:33.569Z,12.39
2023-03-01T15:29:39.732Z,12.33
2023-03-01T15:34:45.921Z,12.54
2023-03-01T15:39:52.243Z,11.80
2023-03-01T15:44:58.869Z,12.29
2023-03-01T15:50:05.116Z,12.12
2023-03-01T15:55:43.105Z,13.61
2023-03-01T16:01:00.355Z,12.92
2023-03-01T16:05:55.154Z,12.60
2023-03-01T16:11:01.371Z,12.35
2023-03-01T16:16:07.708Z,12.28
2023-03-01T16:21:14.100Z,12.30
2023-03-01T16:26:21.440Z,11.88
2023-03-01T16:31:26.239Z,10.82
2023-03-01T16:36:32.383Z,12.19
2023-03-01T16:41:38.700Z,12.55
2023-03-01T16:46:44.852Z,12.88
2023-03-01T16:51:51.396Z,12.71
2023-03-01T16:56:57.543Z,13.30
2023-03-01T17:02:03.994Z,12.28
2023-03-01T17:07:10.233Z,11.78
2023-03-01T17:12:16.508Z,11.10
2023-03-01T17:17:22.576Z,10.55
2023-03-01T17:22:28.868Z,10.68
2023-03-01T17:27:35.749Z,10.29
2023-03-01T17:32:42.157Z,10.27
2023-03-01T17:37:48.061Z,10.47
2023-03-01T17:42:54.311Z,10.02
2023-03-01T17:48:00.448Z,9.99
2023-03-01T17:53:06.683Z,9.69
2023-03-01T17:58:12.782Z,10.06
2023-03-01T18:03:18.954Z,10.75
2023-03-01T18:08:25.072Z,10.76
2023-03-01T18:13:31.654Z,11.14
2023-03-01T18:18:37.842Z,11.24
2023-03-01T18:23:44.158Z,12.07
2023-03-01T18:28:50.321Z,11.22
2023-03-01T18:33:56.560Z,11.31
2023-03-01T18:39:02.713Z,11.93
2023-03-01T18:44:08.967Z,12.08
2023-03-01T18:49:15.041Z,13.72
2023-03-01T18:54:21.497Z,13.62
2023-03-01T18:59:27.652Z,13.82
2023-03-01T19:04:33.889Z,13.17
2023-03-01T19:09:40.041Z,12.61
2023-03-01T19:14:46.295Z,12.61
2023-03-01T19:19:52.507Z,11.55
2023-03-01T19:24:58.903Z,12.00
2023-03-01T19:30:05.285Z,10.79
2023-03-01T19:35:11.467Z,10.40
2023-03-01T19:40:17.651Z,9.80
2023-03-01T19:45:32.929Z,10.31
2023-03-01T19:50:29.493Z,9.95
2023-03-01T19:55:35.776Z,8.78
2023-03-01T20:00:41.863Z,8.66
2023-03-01T20:05:48.094Z,8.35
2023-03-01T20:10:54.358Z,7.99
2023-03-01T20:16:00.641Z,8.08
2023-03-01T20:21:14.572Z,9.19
2023-03-01T20:26:12.848Z,9.18
2023-03-01T20:31:21.961Z,9.84
2023-03-01T20:36:28.012Z,10.70
2023-03-01T20:41:34.220Z,11.02
2023-03-01T20:46:40.443Z,11.08
2023-03-01T20:51:46.549Z,11.65
2023-03-01T20:56:52.737Z,12.21
2023-03-01T21:01:59.010Z,13.57
2023-03-01T21:07:05.293Z,14.58
2023-03-01T21:12:11.473Z,15.14
2023-03-01T21:17:17.713Z,16.02
2023-03-01T21:22:23.857Z,17.03
2023-03-01T21:27:30.094Z,18.45
2023-03-01T21:32:36.224Z,19.20
2023-03-01T21:37:42.583Z,18.92
2023-03-01T21:42:48.858Z,18.30
2023-03-01T21:47:55.010Z,19.37
2023-03-01T21:53:01.242Z,19.52
2023-03-01T21:58:07.400Z,19.57
2023-03-01T22:03:25.844Z,19.71
2023-03-01T22:08:22.083Z,20.36
2023-03-01T22:13:28.187Z,20.93
2023-03-01T22:18:34.454Z,19.99
2023-03-01T22:23:40.682Z,19.79
2023-03-01T22:28:46.926Z,20.42
2023-03-01T22:33:53.024Z,20.09
2023-03-01T22:38:59.337Z,19.04
2023-03-01T22:44:05.581Z,17.75
2023-03-01T22:49:12.664Z,16.72
2023-03-01T22:54:17.925Z,16.82
2023-03-01T22:59:24.036Z,15.89
2023-03-01T23:04:30.146Z,15.24
2023-03-01T23:09:36.422Z,16.02
2023-03-01T23:14:42.719Z,14.96
2023-03-01T23:19:49.008Z,14.57
2023-03-01T23:24:55.194Z,13.99
2023-03-01T23:30:01.374Z,14.31
2023-03-01T23:35:07.440Z,14.04
2023-03-01T23:40:13.883Z,13.85
2023-03-01T23:45:19.989Z,14.52
2023-03-01T23:50:26.198Z,13.51
2023-03-01T23:55:32.315Z,13.36
